createdAt,value
2023-05-14T00:01:12.781Z,13.63
2023-05-14T00:05:14.267Z,15.50
2023-05-14T00:09:15.732Z,16.20
2023-05-14T00:13:17.201Z,11.18
2023-05-14T00:17:20.095Z,21.95
2023-05-14T00:21:21.661Z,12.65
2023-05-14T00:25:23.376Z,12.80
2023-05-14T00:29:25.110Z,17.35
2023-05-14T00:33:27.996Z,13.15
2023-05-14T00:37:29.541Z,16.67
2023-05-14T00:41:31.018Z,12.05
2023-05-14T00:45:32.506Z,13.43
2023-05-14T00:49:35.502Z,16.65
2023-05-14T00:53:37.421Z,15.20
2023-05-14T00:57:38.914Z,17.35
2023-05-14T01:01:40.473Z,13.90
2023-05-14T01:06:06.863Z,14.82
2023-05-14T01:10:13.507Z,14.82
2023-05-14T01:14:21.754Z,14.57
2023-05-14T01:18:24.741Z,16.20
2023-05-14T01:22:27.620Z,13.95
2023-05-14T01:26:29.195Z,18.15
2023-05-14T01:30:33.969Z,17.58
2023-05-14T01:34:37.710Z,16.33
2023-05-14T01:38:41.204Z,15.23
2023-05-14T01:42:43.787Z,19.13
2023-05-14T01:46:45.320Z,15.82
2023-05-14T01:50:46.882Z,17.13
2023-05-14T01:54:49.966Z,19.85
2023-05-14T01:58:51.526Z,19.80
2023-05-14T02:02:53.272Z,18.55
2023-05-14T02:06:54.855Z,14.38
2023-05-14T02:10:57.697Z,14.40
2023-05-14T02:14:59.171Z,14.65
2023-05-14T02:19:00.708Z,14.40
2023-05-14T02:23:02.225Z,13.75
2023-05-14T02:27:05.533Z,16.50
2023-05-14T02:31:07.058Z,18.08
2023-05-14T02:35:09.464Z,16.77
2023-05-14T02:39:10.980Z,20.27
2023-05-14T02:43:14.036Z,21.77
2023-05-14T02:47:15.512Z,14.90
2023-05-14T02:51:17.004Z,15.00
2023-05-14T02:55:18.693Z,19.30
2023-05-14T02:59:21.629Z,19.02
2023-05-14T03:03:23.535Z,17.40
2023-05-14T03:07:25.444Z,16.45
2023-05-14T03:11:26.938Z,17.88
2023-05-14T03:15:29.823Z,21.33
2023-05-14T03:19:31.360Z,16.75
2023-05-14T03:23:32.875Z,16.63
2023-05-14T03:27:34.374Z,19.38
2023-05-14T03:31:37.345Z,14.43
2023-05-14T03:35:38.808Z,17.60
2023-05-14T03:39:40.274Z,15.77
2023-05-14T03:43:41.753Z,20.48
2023-05-14T03:47:44.606Z,17.38
2023-05-14T03:51:46.142Z,18.50
2023-05-14T03:55:47.643Z,14.85
2023-05-14T03:59:49.216Z,14.98
2023-05-14T04:03:52.156Z,20.30
2023-05-14T04:07:53.754Z,17.58
2023-05-14T04:11:55.227Z,20.30
2023-05-14T04:15:56.750Z,16.52
2023-05-14T04:19:59.597Z,17.42
2023-05-14T04:24:01.080Z,17.52
2023-05-14T04:28:02.669Z,14.82
2023-05-14T04:32:04.992Z,17.55
2023-05-14T04:36:08.390Z,18.08
2023-05-14T04:40:10.505Z,19.25
2023-05-14T04:44:12.760Z,19.63
2023-05-14T04:48:14.267Z,21.13
2023-05-14T04:52:17.116Z,15.77
2023-05-14T04:56:18.622Z,17.58
2023-05-14T05:00:20.163Z,19.65
2023-05-14T05:04:21.656Z,17.23
2023-05-14T05:08:24.543Z,21.00
2023-05-14T05:12:26.292Z,17.15
2023-05-14T05:16:27.824Z,20.80
2023-05-14T05:20:29.335Z,21.27
2023-05-14T05:24:32.148Z,16.45
2023-05-14T05:28:33.636Z,17.20
2023-05-14T05:32:35.177Z,14.75
2023-05-14T05:36:36.662Z,14.90
2023-05-14T05:40:39.530Z,14.57
2023-05-14T05:44:41.044Z,13.77
2023-05-14T05:48:42.561Z,13.25
2023-05-14T05:52:44.145Z,13.23
2023-05-14T05:56:46.965Z,19.60
2023-05-14T06:00:48.450Z,13.43
2023-05-14T06:04:49.979Z,14.55
2023-05-14T06:08:51.517Z,15.73
2023-05-14T06:12:54.432Z,14.45
2023-05-14T06:16:55.962Z,12.18
2023-05-14T06:20:57.913Z,14.02
2023-05-14T06:24:59.476Z,11.32
2023-05-14T06:29:02.347Z,12.27
2023-05-14T06:33:04.007Z,11.23
2023-05-14T06:37:05.645Z,11.85
2023-05-14T06:41:07.137Z,9.32
2023-05-14T06:45:10.849Z,10.40
2023-05-14T06:49:12.426Z,13.80
2023-05-14T06:53:14.051Z,10.38
2023-05-14T06:57:15.537Z,8.77
2023-05-14T07:01:18.409Z,7.50
2023-05-14T07:05:19.940Z,10.57
2023-05-14T07:09:21.435Z,8.05
2023-05-14T07:13:23.078Z,6.68
2023-05-14T07:17:26.038Z,8.07
2023-05-14T07:21:27.610Z,8.30
2023-05-14T07:25:29.095Z,12.20
2023-05-14T07:29:30.719Z,9.10
2023-05-14T07:33:33.582Z,7.30
2023-05-14T07:37:35.239Z,8.95
2023-05-14T07:41:36.798Z,10.93
2023-05-14T07:45:38.556Z,8.23
2023-05-14T07:49:41.519Z,9.15
2023-05-14T07:53:43.037Z,9.73
2023-05-14T07:57:44.589Z,8.43
2023-05-14T08:01:46.116Z,7.65
2023-05-14T08:05:49.113Z,8.55
2023-05-14T08:09:50.612Z,8.68
2023-05-14T08:13:52.135Z,6.72
2023-05-14T08:17:53.784Z,6.57
2023-05-14T08:21:56.744Z,8.32
2023-05-14T08:25:58.254Z,8.63
2023-05-14T08:29:59.812Z,6.90
2023-05-14T08:34:01.317Z,6.38
2023-05-14T08:38:04.182Z,12.48
2023-05-14T08:42:07.085Z,5.90
2023-05-14T08:46:13.256Z,6.35
2023-05-14T08:50:15.415Z,5.68
2023-05-14T08:54:18.601Z,6.72
2023-05-14T08:58:20.166Z,6.10
2023-05-14T09:02:27.368Z,5.97
2023-05-14T09:06:29.978Z,7.38
2023-05-14T09:10:32.853Z,5.30
2023-05-14T09:14:34.399Z,7.45
2023-05-14T09:18:36.680Z,8.15
2023-05-14T09:22:38.821Z,7.25
2023-05-14T09:26:42.060Z,8.52
2023-05-14T09:30:47.436Z,7.72
2023-05-14T09:34:48.952Z,7.00
2023-05-14T09:38:50.605Z,4.80
2023-05-14T09:42:53.466Z,6.38
2023-05-14T09:46:55.720Z,6.32
2023-05-14T09:50:57.304Z,5.53
2023-05-14T09:54:59.627Z,6.13
2023-05-14T09:59:03.212Z,5.22
2023-05-14T10:03:06.368Z,6.13
2023-05-14T10:07:08.633Z,5.82
2023-05-14T10:11:14.079Z,5.95
2023-05-14T10:15:22.443Z,5.18
2023-05-14T10:19:24.743Z,4.68
2023-05-14T10:23:27.092Z,6.40
2023-05-14T10:27:28.991Z,4.63
2023-05-14T10:31:48.980Z,4.93
2023-05-14T10:35:52.431Z,5.35
2023-05-14T10:39:57.682Z,6.53
2023-05-14T10:43:59.331Z,7.43
2023-05-14T10:48:02.496Z,4.68
2023-05-14T10:52:07.248Z,5.03
2023-05-14T10:56:11.472Z,5.78
2023-05-14T11:00:14.860Z,5.72
2023-05-14T11:04:23.024Z,6.80
2023-05-14T11:08:28.015Z,8.52
2023-05-14T11:12:31.554Z,5.30
2023-05-14T11:16:33.791Z,5.28
2023-05-14T11:20:37.329Z,6.57
2023-05-14T11:24:38.858Z,5.15
2023-05-14T11:28:40.497Z,6.82
2023-05-14T11:32:44.717Z,6.55
2023-05-14T11:36:47.577Z,6.63
2023-05-14T11:40:51.977Z,6.75
2023-05-14T11:44:53.651Z,5.78
2023-05-14T11:48:55.152Z,4.97
2023-05-14T11:52:58.022Z,7.45
2023-05-14T11:57:01.700Z,7.03
2023-05-14T12:01:03.316Z,8.20
2023-05-14T12:05:06.355Z,5.28
2023-05-14T12:09:12.524Z,4.35
2023-05-14T12:13:15.578Z,3.65
2023-05-14T12:17:18.673Z,6.85
2023-05-14T12:21:20.374Z,4.65
2023-05-14T12:25:25.623Z,5.38
2023-05-14T12:29:27.169Z,6.00
2023-05-14T12:33:28.897Z,4.75
2023-05-14T12:37:31.349Z,6.60
2023-05-14T12:41:34.244Z,4.95
2023-05-14T12:45:35.755Z,6.15
2023-05-14T12:49:37.269Z,5.80
2023-05-14T12:53:38.794Z,5.85
2023-05-14T12:57:41.799Z,5.63
2023-05-14T13:01:43.357Z,6.03
2023-05-14T13:05:44.918Z,6.35
2023-05-14T13:09:46.433Z,6.03
2023-05-14T13:13:49.267Z,5.70
2023-05-14T13:17:50.767Z,6.50
2023-05-14T13:21:52.281Z,6.82
2023-05-14T13:25:53.829Z,8.40
2023-05-14T13:29:56.762Z,6.18
2023-05-14T13:33:58.307Z,6.43
2023-05-14T13:37:59.877Z,8.07
2023-05-14T13:42:01.434Z,8.18
2023-05-14T13:46:05.611Z,7.72
2023-05-14T13:50:08.010Z,7.75
2023-05-14T13:54:09.846Z,6.60
2023-05-14T13:58:11.410Z,5.95
2023-05-14T14:02:14.940Z,6.88
2023-05-14T14:06:16.498Z,6.68
2023-05-14T14:10:18.061Z,6.50
2023-05-14T14:14:19.580Z,10.50
2023-05-14T14:18:22.466Z,5.75
2023-05-14T14:22:27.129Z,9.60
2023-05-14T14:26:30.499Z,8.40
2023-05-14T14:30:32.698Z,6.57
2023-05-14T14:34:35.573Z,8.05
2023-05-14T14:38:37.087Z,5.53
2023-05-14T14:42:38.598Z,7.60
2023-05-14T14:46:40.105Z,8.65
2023-05-14T14:50:42.988Z,7.68
2023-05-14T14:54:44.470Z,9.05
2023-05-14T14:58:46.014Z,7.78
2023-05-14T15:02:47.660Z,7.63
2023-05-14T15:06:50.601Z,9.32
2023-05-14T15:10:52.244Z,9.68
2023-05-14T15:14:53.789Z,7.05
2023-05-14T15:18:55.302Z,7.55
2023-05-14T15:22:58.251Z,9.52
2023-05-14T15:26:59.736Z,6.55
2023-05-14T15:31:01.286Z,7.90
2023-05-14T15:35:02.961Z,8.00
2023-05-14T15:39:05.771Z,10.60
2023-05-14T15:43:07.346Z,7.53
2023-05-14T15:47:08.841Z,10.88
2023-05-14T15:51:10.404Z,10.80
2023-05-14T15:55:13.456Z,7.25
2023-05-14T15:59:14.958Z,6.45
2023-05-14T16:03:17.230Z,6.95
2023-05-14T16:07:18.824Z,9.95
2023-05-14T16:11:21.737Z,6.35
2023-05-14T16:15:23.235Z,7.15
2023-05-14T16:19:24.848Z,7.30
2023-05-14T16:23:26.561Z,7.30
2023-05-14T16:27:29.530Z,6.85
2023-05-14T16:31:31.061Z,6.10
2023-05-14T16:35:32.587Z,6.93
2023-05-14T16:39:34.047Z,7.85
2023-05-14T16:43:36.880Z,6.47
2023-05-14T16:47:38.385Z,5.53
2023-05-14T16:51:39.902Z,6.20
2023-05-14T16:55:41.454Z,3.90
2023-05-14T16:59:45.133Z,5.22
2023-05-14T17:03:46.601Z,5.05
2023-05-14T17:07:48.130Z,5.57
2023-05-14T17:11:49.620Z,5.32
2023-05-14T17:15:52.597Z,4.75
2023-05-14T17:19:54.205Z,4.97
2023-05-14T17:23:55.686Z,6.68
2023-05-14T17:27:57.184Z,7.22
2023-05-14T17:32:00.180Z,9.85
2023-05-14T17:36:01.818Z,5.45
2023-05-14T17:40:03.649Z,5.03
2023-05-14T17:44:05.195Z,6.78
2023-05-14T17:48:08.118Z,5.22
2023-05-14T17:52:09.658Z,5.13
2023-05-14T17:56:11.156Z,6.45
2023-05-14T18:00:13.422Z,5.57
2023-05-14T18:04:16.295Z,6.60
2023-05-14T18:08:17.828Z,4.25
2023-05-14T18:12:19.306Z,4.47
2023-05-14T18:16:20.873Z,7.20
2023-05-14T18:20:23.781Z,4.20
2023-05-14T18:24:25.399Z,5.80
2023-05-14T18:28:27.724Z,7.90
2023-05-14T18:32:29.537Z,4.53
2023-05-14T18:36:32.760Z,8.88
2023-05-14T18:40:34.290Z,4.88
2023-05-14T18:44:35.744Z,5.15
2023-05-14T18:48:37.308Z,7.07
2023-05-14T18:52:40.138Z,9.07
2023-05-14T18:56:41.682Z,10.48
2023-05-14T19:00:43.157Z,7.68
2023-05-14T19:04:51.633Z,8.70
2023-05-14T19:08:55.401Z,7.25
2023-05-14T19:12:56.848Z,9.15
2023-05-14T19:16:58.412Z,7.25
2023-05-14T19:20:59.889Z,7.18
2023-05-14T19:25:03.198Z,7.03
2023-05-14T19:29:05.796Z,7.47
2023-05-14T19:33:07.290Z,8.15
2023-05-14T19:37:08.853Z,9.27
2023-05-14T19:41:11.730Z,14.63
2023-05-14T19:45:13.282Z,8.40
2023-05-14T19:49:14.764Z,6.38
2023-05-14T19:53:16.254Z,9.18
2023-05-14T19:57:19.105Z,6.60
2023-05-14T20:01:20.698Z,9.23
2023-05-14T20:05:22.207Z,6.90
2023-05-14T20:09:23.705Z,6.97
2023-05-14T20:13:26.588Z,9.15
2023-05-14T20:17:28.131Z,8.98
2023-05-14T20:21:29.882Z,6.72
2023-05-14T20:25:32.028Z,6.55
2023-05-14T20:29:35.055Z,8.88
2023-05-14T20:33:36.525Z,8.40
2023-05-14T20:37:38.027Z,6.55
2023-05-14T20:41:39.485Z,6.93
2023-05-14T20:45:42.327Z,7.60
2023-05-14T20:49:43.832Z,6.57
2023-05-14T20:53:45.325Z,6.72
2023-05-14T20:57:46.799Z,8.82
2023-05-14T21:01:49.680Z,5.68
2023-05-14T21:05:51.184Z,10.55
2023-05-14T21:09:52.762Z,8.48
2023-05-14T21:13:54.274Z,5.50
2023-05-14T21:17:57.193Z,5.53
2023-05-14T21:21:58.680Z,8.90
2023-05-14T21:26:00.178Z,5.10
2023-05-14T21:30:01.663Z,4.82
2023-05-14T21:34:04.496Z,10.60
2023-05-14T21:38:06.012Z,9.10
2023-05-14T21:42:08.339Z,7.05
2023-05-14T21:46:09.848Z,6.18
2023-05-14T21:50:12.689Z,9.10
2023-05-14T21:54:14.230Z,10.80
2023-05-14T21:58:15.838Z,5.85
2023-05-14T22:02:17.420Z,7.22
2023-05-14T22:06:20.298Z,8.43
2023-05-14T22:10:21.970Z,6.55
2023-05-14T22:14:23.614Z,6.97
2023-05-14T22:18:25.076Z,6.50
2023-05-14T22:22:27.905Z,6.85
2023-05-14T22:26:29.393Z,5.63
2023-05-14T22:30:30.856Z,7.00
2023-05-14T22:34:32.331Z,9.65
2023-05-14T22:38:35.184Z,10.20
2023-05-14T22:42:36.655Z,10.50
2023-05-14T22:46:38.258Z,7.20
2023-05-14T22:50:39.791Z,6.68
2023-05-14T22:54:42.596Z,5.88
2023-05-14T22:58:44.075Z,5.97
2023-05-14T23:02:45.593Z,7.10
2023-05-14T23:06:47.206Z,8.45
2023-05-14T23:10:50.042Z,7.22
2023-05-14T23:14:51.505Z,6.15
2023-05-14T23:18:53.080Z,6.40
2023-05-14T23:22:54.681Z,9.23
2023-05-14T23:26:57.940Z,5.75
2023-05-14T23:30:59.497Z,6.43
2023-05-14T23:35:00.962Z,5.18
2023-05-14T23:39:02.461Z,12.98
2023-05-14T23:43:05.319Z,6.88
2023-05-14T23:47:07.295Z,10.15
2023-05-14T23:51:08.790Z,9.65
2023-05-14T23:55:10.285Z,5.85
2023-05-14T23:59:13.117Z,8.18
